createdAt,value
2023-01-17T00:00:26.875Z,93615.38
2023-01-17T00:02:56.127Z,93631.06
2023-01-17T00:05:42.353Z,93609.03
2023-01-17T00:08:30.504Z,93615.63
2023-01-17T00:10:59.703Z,93619.53
2023-01-17T00:13:28.890Z,93627.28
2023-01-17T00:15:58.059Z,93641.16
2023-01-17T00:18:27.179Z,93637.94
2023-01-17T00:21:13.479Z,93654.94
2023-01-17T00:24:01.534Z,93647.13
2023-01-17T00:26:32.780Z,93646.09
2023-01-17T00:29:00.473Z,93638.84
2023-01-17T00:31:28.232Z,93639.56
2023-01-17T00:33:55.925Z,93654.94
2023-01-17T00:36:23.695Z,93665.25
2023-01-17T00:38:52.959Z,93670.09
2023-01-17T00:41:20.637Z,93660.63
2023-01-17T00:44:06.882Z,93654.03
2023-01-17T00:46:53.390Z,93655.41
2023-01-17T00:49:39.790Z,93639.84
2023-01-17T00:52:26.048Z,93635.16
2023-01-17T00:55:17.135Z,93633.44
2023-01-17T00:58:03.332Z,93637.31
2023-01-17T01:00:49.600Z,93622.19
2023-01-17T01:03:35.720Z,93648.91
2023-01-17T01:06:23.521Z,93657.59
2023-01-17T01:09:10.783Z,93657.47
2023-01-17T01:11:58.236Z,93649.34
2023-01-17T01:14:44.463Z,93641.47
2023-01-17T01:17:30.758Z,93613.75
2023-01-17T01:20:17.083Z,93614.97
2023-01-17T01:23:03.578Z,93630.13
2023-01-17T01:25:49.802Z,93617.56
2023-01-17T01:28:37.895Z,93604.81
2023-01-17T01:31:25.732Z,93613.47
2023-01-17T01:33:54.822Z,93598.78
2023-01-17T01:36:24.059Z,93589.47
2023-01-17T01:38:54.810Z,93585.94
2023-01-17T01:41:23.883Z,93580.84
2023-01-17T01:43:56.270Z,93596.53
2023-01-17T01:46:28.412Z,93579.25
2023-01-17T01:49:00.550Z,93576.75
2023-01-17T01:51:34.783Z,93575.63
2023-01-17T01:54:09.133Z,93563.09
2023-01-17T01:56:39.462Z,93585.28
2023-01-17T01:59:13.021Z,93579.13
2023-01-17T02:01:42.055Z,93569.81
2023-01-17T02:04:11.563Z,93583.94
2023-01-17T02:06:43.546Z,93585.41
2023-01-17T02:09:14.231Z,93578.34
2023-01-17T02:11:44.034Z,93577.31
2023-01-17T02:14:18.834Z,93562.31
2023-01-17T02:17:01.782Z,93574.38
2023-01-17T02:19:58.974Z,93588.38
2023-01-17T02:23:02.662Z,93574.25
2023-01-17T02:26:06.448Z,93586.69
2023-01-17T02:28:51.552Z,93579.06
2023-01-17T02:31:28.981Z,93572.22
2023-01-17T02:34:04.921Z,93585.09
2023-01-17T02:36:37.208Z,93585.75
2023-01-17T02:39:11.904Z,93547.16
2023-01-17T02:41:43.089Z,93545.59
2023-01-17T02:44:17.099Z,93547.97
2023-01-17T02:46:50.405Z,93550.69
2023-01-17T02:49:22.784Z,93531.81
2023-01-17T02:52:23.293Z,93523.06
2023-01-17T02:55:15.045Z,93528.38
2023-01-17T02:58:04.668Z,93545.69
2023-01-17T03:00:40.384Z,93531.59
2023-01-17T03:03:19.059Z,93528.06
2023-01-17T03:05:53.701Z,93542.19
2023-01-17T03:08:23.954Z,93532.25
2023-01-17T03:10:53.099Z,93533.16
2023-01-17T03:13:22.239Z,93519.50
2023-01-17T03:15:51.575Z,93525.09
2023-01-17T03:18:22.167Z,93524.66
2023-01-17T03:20:51.174Z,93541.03
2023-01-17T03:23:20.291Z,93529.63
2023-01-17T03:25:49.289Z,93536.13
2023-01-17T03:28:18.383Z,93524.16
2023-01-17T03:30:47.449Z,93527.47
2023-01-17T03:33:18.445Z,93548.53
2023-01-17T03:35:49.111Z,93525.75
2023-01-17T03:38:18.078Z,93541.25
2023-01-17T03:40:47.279Z,93542.47
2023-01-17T03:43:16.417Z,93528.78
2023-01-17T03:45:45.418Z,93533.22
2023-01-17T03:48:14.434Z,93526.06
2023-01-17T03:50:43.361Z,93539.19
2023-01-17T03:53:13.919Z,93529.94
2023-01-17T03:55:42.826Z,93533.16
2023-01-17T03:58:11.903Z,93536.13
2023-01-17T04:00:41.153Z,93533.81
2023-01-17T04:03:10.178Z,93537.16
2023-01-17T04:05:39.298Z,93543.03
2023-01-17T04:08:08.495Z,93541.00
2023-01-17T04:10:38.978Z,93537.13
2023-01-17T04:13:08.375Z,93541.09
2023-01-17T04:15:37.415Z,93545.31
2023-01-17T04:18:07.942Z,93536.53
2023-01-17T04:20:38.573Z,93537.91
2023-01-17T04:23:08.264Z,93548.88
2023-01-17T04:25:38.939Z,93539.59
2023-01-17T04:28:08.186Z,93554.78
2023-01-17T04:30:37.329Z,93555.56
2023-01-17T04:33:06.764Z,93550.75
2023-01-17T04:35:36.220Z,93566.00
2023-01-17T04:38:05.573Z,93566.81
2023-01-17T04:40:34.652Z,93564.53
2023-01-17T04:43:05.166Z,93566.56
2023-01-17T04:45:34.245Z,93580.09
2023-01-17T04:48:05.213Z,93579.88
2023-01-17T04:50:37.436Z,93578.06
2023-01-17T04:53:09.707Z,93581.28
2023-01-17T04:55:38.799Z,93573.41
2023-01-17T04:58:09.196Z,93582.28
2023-01-17T05:00:38.237Z,93578.16
2023-01-17T05:03:07.434Z,93578.91
2023-01-17T05:05:36.799Z,93571.59
2023-01-17T05:08:06.022Z,93574.66
2023-01-17T05:10:34.991Z,93590.59
2023-01-17T05:13:04.476Z,93579.91
2023-01-17T05:15:34.957Z,93591.41
2023-01-17T05:18:07.584Z,93584.75
2023-01-17T05:20:37.986Z,93586.72
2023-01-17T05:23:07.181Z,93577.50
2023-01-17T05:25:37.240Z,93566.41
2023-01-17T05:28:06.706Z,93561.28
2023-01-17T05:30:37.223Z,93566.94
2023-01-17T05:33:06.316Z,93559.38
2023-01-17T05:35:35.354Z,93555.47
2023-01-17T05:38:04.531Z,93560.38
2023-01-17T05:40:34.765Z,93560.81
2023-01-17T05:43:04.772Z,93566.59
2023-01-17T05:45:35.026Z,93560.91
2023-01-17T05:48:06.933Z,93555.09
2023-01-17T05:50:37.740Z,93552.81
2023-01-17T05:53:08.397Z,93547.69
2023-01-17T05:55:38.391Z,93540.44
2023-01-17T05:58:08.913Z,93542.38
2023-01-17T06:00:38.205Z,93535.31
2023-01-17T06:03:11.881Z,93548.16
2023-01-17T06:05:41.249Z,93550.19
2023-01-17T06:08:11.067Z,93558.59
2023-01-17T06:10:40.275Z,93569.66
2023-01-17T06:13:12.551Z,93567.22
2023-01-17T06:15:41.874Z,93578.06
2023-01-17T06:18:14.136Z,93580.38
2023-01-17T06:20:43.992Z,93596.31
2023-01-17T06:23:15.359Z,93599.56
2023-01-17T06:25:46.544Z,93610.72
2023-01-17T06:28:20.079Z,93591.13
2023-01-17T06:30:49.588Z,93599.59
2023-01-17T06:33:19.943Z,93593.19
2023-01-17T06:35:49.789Z,93591.78
2023-01-17T06:38:18.933Z,93603.56
2023-01-17T06:40:48.280Z,93613.78
2023-01-17T06:43:17.441Z,93606.16
2023-01-17T06:45:46.579Z,93602.03
2023-01-17T06:48:15.720Z,93613.38
2023-01-17T06:50:46.964Z,93612.94
2023-01-17T06:53:16.072Z,93602.31
2023-01-17T06:55:45.015Z,93599.81
2023-01-17T06:58:14.073Z,93597.09
2023-01-17T07:00:43.132Z,93594.56
2023-01-17T07:03:20.608Z,93595.19
2023-01-17T07:05:51.633Z,93598.66
2023-01-17T07:08:21.365Z,93600.03
2023-01-17T07:10:50.757Z,93605.34
2023-01-17T07:13:19.962Z,93598.81
2023-01-17T07:15:49.123Z,93590.88
2023-01-17T07:18:20.917Z,93601.00
2023-01-17T07:20:51.684Z,93605.50
2023-01-17T07:23:21.812Z,93611.59
2023-01-17T07:25:53.933Z,93611.09
2023-01-17T07:28:23.609Z,93613.97
2023-01-17T07:30:52.856Z,93619.28
2023-01-17T07:33:22.522Z,93617.75
2023-01-17T07:35:53.119Z,93601.09
2023-01-17T07:38:22.296Z,93606.09
2023-01-17T07:40:51.292Z,93614.06
2023-01-17T07:43:20.361Z,93618.03
2023-01-17T07:45:51.364Z,93615.38
2023-01-17T07:48:22.009Z,93625.72
2023-01-17T07:50:56.827Z,93632.06
2023-01-17T07:53:27.040Z,93648.44
2023-01-17T07:55:56.759Z,93637.31
2023-01-17T07:58:25.816Z,93637.59
2023-01-17T08:00:55.014Z,93623.00
2023-01-17T08:03:32.491Z,93627.78
2023-01-17T08:06:04.122Z,93628.31
2023-01-17T08:08:33.449Z,93625.94
2023-01-17T08:11:02.621Z,93624.09
2023-01-17T08:13:31.641Z,93636.78
2023-01-17T08:16:02.630Z,93646.59
2023-01-17T08:18:31.803Z,93646.59
2023-01-17T08:21:00.817Z,93645.25
2023-01-17T08:23:31.955Z,93643.91
2023-01-17T08:26:04.526Z,93656.88
2023-01-17T08:28:33.642Z,93653.97
2023-01-17T08:31:08.657Z,93647.31
2023-01-17T08:33:37.995Z,93646.41
2023-01-17T08:36:07.915Z,93651.28
2023-01-17T08:38:38.339Z,93668.41
2023-01-17T08:41:07.484Z,93664.38
2023-01-17T08:43:36.693Z,93675.22
2023-01-17T08:46:06.529Z,93665.63
2023-01-17T08:48:35.643Z,93664.56
2023-01-17T08:51:05.050Z,93661.19
2023-01-17T08:53:34.219Z,93671.84
2023-01-17T08:56:06.626Z,93671.59
2023-01-17T08:58:36.121Z,93670.81
2023-01-17T09:01:07.701Z,93662.66
2023-01-17T09:03:38.921Z,93681.22
2023-01-17T09:06:10.634Z,93674.56
2023-01-17T09:08:40.024Z,93667.72
2023-01-17T09:11:13.348Z,93671.69
2023-01-17T09:13:43.629Z,93676.19
2023-01-17T09:16:12.894Z,93662.41
2023-01-17T09:18:42.091Z,93663.44
2023-01-17T09:21:12.408Z,93678.28
2023-01-17T09:23:41.584Z,93662.84
2023-01-17T09:26:19.641Z,93661.56
2023-01-17T09:28:49.140Z,93645.72
2023-01-17T09:31:18.638Z,93661.31
2023-01-17T09:33:47.967Z,93658.88
2023-01-17T09:36:17.416Z,93645.41
2023-01-17T09:38:46.498Z,93655.50
2023-01-17T09:41:27.801Z,93654.44
2023-01-17T09:44:03.004Z,93658.66
2023-01-17T09:46:35.274Z,93677.78
2023-01-17T09:49:09.351Z,93669.81
2023-01-17T09:51:39.032Z,93669.53
2023-01-17T09:54:23.568Z,93674.06
2023-01-17T09:57:02.406Z,93668.69
2023-01-17T09:59:44.333Z,93658.41
2023-01-17T10:02:27.092Z,93670.81
2023-01-17T10:05:16.879Z,93664.97
2023-01-17T10:07:57.731Z,93667.19
2023-01-17T10:10:34.112Z,93672.69
2023-01-17T10:13:20.906Z,93671.28
2023-01-17T10:16:14.112Z,93665.19
2023-01-17T10:19:14.334Z,93670.78
2023-01-17T10:22:10.491Z,93656.50
2023-01-17T10:25:16.703Z,93668.63
2023-01-17T10:27:49.507Z,93660.00
2023-01-17T10:30:26.966Z,93660.00
2023-01-17T10:33:00.083Z,93664.47
2023-01-17T10:35:31.313Z,93652.47
2023-01-17T10:38:05.484Z,93643.97
2023-01-17T10:40:42.533Z,93642.44
2023-01-17T10:43:20.502Z,93636.50
2023-01-17T10:45:56.255Z,93631.22
2023-01-17T10:48:37.391Z,93630.34
2023-01-17T10:51:19.459Z,93622.81
2023-01-17T10:54:01.993Z,93624.34
2023-01-17T10:56:31.963Z,93621.53
2023-01-17T10:59:18.321Z,93620.53
2023-01-17T11:01:51.129Z,93616.78
2023-01-17T11:04:22.975Z,93614.56
2023-01-17T11:07:12.663Z,93617.41
2023-01-17T11:09:43.601Z,93618.81
2023-01-17T11:12:26.483Z,93610.84
2023-01-17T11:15:02.705Z,93613.13
2023-01-17T11:17:37.695Z,93609.41
2023-01-17T11:20:17.335Z,93599.41
2023-01-17T11:22:50.026Z,93598.53
2023-01-17T11:25:24.077Z,93595.72
2023-01-17T11:28:02.213Z,93598.50
2023-01-17T11:30:31.616Z,93590.56
2023-01-17T11:33:04.593Z,93581.91
2023-01-17T11:35:35.988Z,93573.75
2023-01-17T11:38:16.405Z,93574.91
2023-01-17T11:40:46.741Z,93563.34
2023-01-17T11:43:26.757Z,93561.75
2023-01-17T11:46:07.889Z,93564.88
2023-01-17T11:48:40.298Z,93553.19
2023-01-17T11:51:20.992Z,93558.97
2023-01-17T11:53:50.224Z,93541.09
2023-01-17T11:56:23.927Z,93544.53
2023-01-17T11:58:53.275Z,93531.13
2023-01-17T12:01:36.691Z,93524.38
2023-01-17T12:04:21.187Z,93523.22
2023-01-17T12:07:06.566Z,93525.09
2023-01-17T12:09:44.397Z,93518.47
2023-01-17T12:12:39.831Z,93505.72
2023-01-17T12:15:27.347Z,93484.25
2023-01-17T12:18:12.906Z,93495.22
2023-01-17T12:20:51.607Z,93482.72
2023-01-17T12:23:43.344Z,93484.41
2023-01-17T12:26:28.688Z,93474.13
2023-01-17T12:29:45.301Z,93475.16
2023-01-17T12:32:31.397Z,93472.78
2023-01-17T12:35:05.312Z,93478.88
2023-01-17T12:37:39.582Z,93471.78
2023-01-17T12:40:19.853Z,93474.63
2023-01-17T12:42:53.611Z,93475.72
2023-01-17T12:45:27.986Z,93469.06
2023-01-17T12:48:03.963Z,93460.25
2023-01-17T12:50:38.416Z,93467.63
2023-01-17T12:53:20.169Z,93472.72
2023-01-17T12:55:59.297Z,93484.88
2023-01-17T12:58:32.220Z,93467.94
2023-01-17T13:01:06.240Z,93483.25
2023-01-17T13:03:49.159Z,93473.41
2023-01-17T13:06:37.609Z,93474.72
2023-01-17T13:09:15.259Z,93459.91
2023-01-17T13:11:50.248Z,93474.41
2023-01-17T13:14:19.423Z,93468.03
2023-01-17T13:16:54.947Z,93468.25
2023-01-17T13:19:33.609Z,93476.50
2023-01-17T13:22:06.616Z,93469.72
2023-01-17T13:24:44.511Z,93482.56
2023-01-17T13:27:48.757Z,93479.84
2023-01-17T13:30:27.393Z,93486.72
2023-01-17T13:33:17.899Z,93480.19
2023-01-17T13:35:58.417Z,93481.13
2023-01-17T13:38:36.247Z,93486.44
2023-01-17T13:41:18.355Z,93488.34
2023-01-17T13:44:08.493Z,93487.50
2023-01-17T13:47:00.076Z,93500.78
2023-01-17T13:49:44.437Z,93498.91
2023-01-17T13:52:33.256Z,93492.53
2023-01-17T13:55:04.341Z,93483.81
2023-01-17T13:57:42.340Z,93489.41
2023-01-17T14:01:00.089Z,93487.63
2023-01-17T14:04:05.930Z,93488.47
2023-01-17T14:06:44.499Z,93480.91
2023-01-17T14:09:19.132Z,93477.25
2023-01-17T14:12:06.969Z,93482.84
2023-01-17T14:14:55.943Z,93474.81
2023-01-17T14:17:51.900Z,93479.00
2023-01-17T14:21:01.864Z,93477.84
2023-01-17T14:23:48.501Z,93472.34
2023-01-17T14:26:34.478Z,93474.38
2023-01-17T14:29:36.529Z,93475.78
2023-01-17T14:32:11.178Z,93470.97
2023-01-17T14:34:40.490Z,93478.72
2023-01-17T14:37:20.790Z,93468.44
2023-01-17T14:39:51.481Z,93456.34
2023-01-17T14:42:23.929Z,93482.72
2023-01-17T14:45:02.340Z,93474.88
2023-01-17T14:47:36.825Z,93473.06
2023-01-17T14:50:24.181Z,93473.81
2023-01-17T14:53:21.006Z,93482.03
2023-01-17T14:55:56.812Z,93476.28
2023-01-17T14:58:28.464Z,93483.66
2023-01-17T15:01:01.643Z,93482.66
2023-01-17T15:03:36.941Z,93486.78
2023-01-17T15:06:12.776Z,93491.47
2023-01-17T15:08:42.016Z,93496.22
2023-01-17T15:11:18.320Z,93502.72
2023-01-17T15:13:50.913Z,93491.63
2023-01-17T15:16:23.031Z,93503.28
2023-01-17T15:18:54.544Z,93495.19
2023-01-17T15:21:25.385Z,93501.25
2023-01-17T15:23:56.878Z,93486.81
2023-01-17T15:26:27.915Z,93481.78
2023-01-17T15:29:04.500Z,93492.69
2023-01-17T15:31:43.468Z,93492.34
2023-01-17T15:34:24.202Z,93504.84
2023-01-17T15:36:54.085Z,93496.63
2023-01-17T15:39:26.011Z,93497.25
2023-01-17T15:41:58.397Z,93496.16
2023-01-17T15:44:47.032Z,93493.78
2023-01-17T15:47:30.219Z,93491.69
2023-01-17T15:50:01.991Z,93489.00
2023-01-17T15:52:32.271Z,93486.44
2023-01-17T15:55:12.779Z,93483.78
2023-01-17T15:57:44.287Z,93499.38
2023-01-17T16:00:22.426Z,93498.06
2023-01-17T16:02:55.691Z,93491.19
2023-01-17T16:05:38.959Z,93484.88
2023-01-17T16:08:33.772Z,93481.44
2023-01-17T16:11:06.349Z,93487.78
2023-01-17T16:13:38.046Z,93495.78
2023-01-17T16:16:19.209Z,93483.88
2023-01-17T16:18:49.082Z,93474.06
2023-01-17T16:21:26.484Z,93469.56
2023-01-17T16:23:56.323Z,93475.66
2023-01-17T16:26:25.871Z,93470.63
2023-01-17T16:28:55.093Z,93455.97
2023-01-17T16:31:24.462Z,93447.81
2023-01-17T16:33:56.651Z,93457.91
2023-01-17T16:36:27.307Z,93455.03
2023-01-17T16:38:56.483Z,93445.78
2023-01-17T16:41:26.155Z,93452.66
2023-01-17T16:44:00.874Z,93450.78
2023-01-17T16:46:31.037Z,93442.59
2023-01-17T16:49:01.689Z,93439.72
2023-01-17T16:51:32.940Z,93447.63
2023-01-17T16:54:03.190Z,93451.88
2023-01-17T16:56:32.596Z,93445.53
2023-01-17T16:59:01.681Z,93445.03
2023-01-17T17:01:30.841Z,93454.88
2023-01-17T17:03:59.976Z,93442.16
2023-01-17T17:06:29.268Z,93456.72
2023-01-17T17:09:00.614Z,93449.31
2023-01-17T17:11:29.972Z,93451.41
2023-01-17T17:13:59.425Z,93456.72
2023-01-17T17:16:31.297Z,93453.56
2023-01-17T17:19:02.640Z,93448.25
2023-01-17T17:21:32.770Z,93440.22
2023-01-17T17:24:04.210Z,93441.09
2023-01-17T17:26:35.642Z,93444.28
2023-01-17T17:29:06.333Z,93439.13
2023-01-17T17:31:35.682Z,93434.34
2023-01-17T17:34:07.538Z,93418.13
2023-01-17T17:36:37.247Z,93418.28
2023-01-17T17:39:10.561Z,93410.25
2023-01-17T17:41:43.751Z,93403.06
2023-01-17T17:44:12.611Z,93398.84
2023-01-17T17:46:42.491Z,93400.19
2023-01-17T17:49:11.765Z,93401.75
2023-01-17T17:51:42.429Z,93394.81
2023-01-17T17:54:15.104Z,93395.63
2023-01-17T17:56:46.833Z,93390.47
2023-01-17T17:59:18.633Z,93389.22
2023-01-17T18:01:48.283Z,93389.22
2023-01-17T18:04:17.838Z,93379.94
2023-01-17T18:06:47.297Z,93377.81
2023-01-17T18:09:18.333Z,93375.25
2023-01-17T18:11:47.707Z,93381.69
2023-01-17T18:14:21.215Z,93387.50
2023-01-17T18:16:51.116Z,93377.47
2023-01-17T18:19:22.296Z,93370.91
2023-01-17T18:21:52.670Z,93365.22
2023-01-17T18:24:24.659Z,93375.25
2023-01-17T18:26:56.250Z,93377.41
2023-01-17T18:29:27.409Z,93374.78
2023-01-17T18:31:56.971Z,93375.09
2023-01-17T18:34:46.096Z,93373.19
2023-01-17T18:37:15.337Z,93374.81
2023-01-17T18:39:45.933Z,93380.00
2023-01-17T18:42:15.068Z,93359.34
2023-01-17T18:44:44.445Z,93369.13
2023-01-17T18:47:13.759Z,93368.00
2023-01-17T18:49:43.172Z,93370.41
2023-01-17T18:52:12.472Z,93374.81
2023-01-17T18:54:41.684Z,93372.13
2023-01-17T18:57:12.360Z,93367.94
2023-01-17T18:59:43.522Z,93378.94
2023-01-17T19:02:12.609Z,93374.69
2023-01-17T19:04:41.861Z,93365.44
2023-01-17T19:07:12.635Z,93377.97
2023-01-17T19:09:42.009Z,93366.50
2023-01-17T19:12:12.775Z,93380.97
2023-01-17T19:14:42.113Z,93376.91
2023-01-17T19:17:11.275Z,93373.63
2023-01-17T19:19:40.536Z,93379.22
2023-01-17T19:22:09.986Z,93382.88
2023-01-17T19:24:39.282Z,93385.19
2023-01-17T19:27:08.961Z,93388.50
2023-01-17T19:29:39.948Z,93408.63
2023-01-17T19:32:10.034Z,93401.47
2023-01-17T19:34:39.372Z,93398.75
2023-01-17T19:37:08.678Z,93397.06
2023-01-17T19:39:37.877Z,93396.03
2023-01-17T19:42:09.764Z,93401.66
2023-01-17T19:44:40.419Z,93401.84
2023-01-17T19:47:12.457Z,93394.97
2023-01-17T19:49:42.727Z,93399.47
2023-01-17T19:52:12.122Z,93409.53
2023-01-17T19:54:41.244Z,93393.81
2023-01-17T19:57:10.441Z,93397.34
2023-01-17T19:59:41.041Z,93402.94
2023-01-17T20:02:11.800Z,93389.38
2023-01-17T20:04:41.432Z,93385.81
2023-01-17T20:07:10.546Z,93384.53
2023-01-17T20:09:39.606Z,93387.41
2023-01-17T20:12:09.286Z,93367.53
2023-01-17T20:14:38.226Z,93382.53
2023-01-17T20:17:08.937Z,93378.09
2023-01-17T20:19:38.047Z,93368.28
2023-01-17T20:22:07.225Z,93352.25
2023-01-17T20:24:36.755Z,93378.38
2023-01-17T20:27:05.909Z,93368.03
2023-01-17T20:29:35.193Z,93365.38
2023-01-17T20:32:04.607Z,93369.34
2023-01-17T20:34:35.096Z,93377.59
2023-01-17T20:37:04.153Z,93368.09
2023-01-17T20:39:33.297Z,93367.53
2023-01-17T20:42:02.327Z,93367.00
2023-01-17T20:44:32.746Z,93368.69
2023-01-17T20:47:02.049Z,93361.84
2023-01-17T20:49:31.120Z,93348.84
2023-01-17T20:52:02.086Z,93362.38
2023-01-17T20:54:31.195Z,93372.44
2023-01-17T20:57:00.307Z,93368.16
2023-01-17T20:59:29.585Z,93358.78
2023-01-17T21:01:58.690Z,93353.88
2023-01-17T21:04:27.909Z,93353.22
2023-01-17T21:06:57.769Z,93341.56
2023-01-17T21:09:28.358Z,93350.19
2023-01-17T21:12:01.374Z,93368.38
2023-01-17T21:14:30.606Z,93359.81
2023-01-17T21:16:59.835Z,93357.47
2023-01-17T21:19:29.217Z,93358.84
2023-01-17T21:21:59.318Z,93351.97
2023-01-17T21:24:29.867Z,93354.09
2023-01-17T21:26:59.131Z,93341.81
2023-01-17T21:29:29.478Z,93341.94
2023-01-17T21:31:59.089Z,93343.59
2023-01-17T21:34:32.261Z,93338.97
2023-01-17T21:37:01.470Z,93321.91
2023-01-17T21:39:32.262Z,93321.91
2023-01-17T21:42:01.354Z,93338.97
2023-01-17T21:44:36.973Z,93333.50
2023-01-17T21:47:06.169Z,93319.94
2023-01-17T21:49:35.450Z,93326.56
2023-01-17T21:52:19.721Z,93319.47
2023-01-17T21:55:07.767Z,93312.22
2023-01-17T21:57:54.512Z,93309.84
2023-01-17T22:00:24.917Z,93297.72
2023-01-17T22:02:54.237Z,93302.44
2023-01-17T22:05:23.464Z,93320.13
2023-01-17T22:08:16.681Z,93309.84
2023-01-17T22:10:47.248Z,93313.91
2023-01-17T22:13:18.408Z,93335.84
2023-01-17T22:15:47.757Z,93306.69
2023-01-17T22:18:16.745Z,93315.22
2023-01-17T22:20:45.776Z,93316.06
2023-01-17T22:23:14.996Z,93326.44
2023-01-17T22:25:44.145Z,93314.47
2023-01-17T22:28:14.919Z,93337.56
2023-01-17T22:30:44.104Z,93332.81
2023-01-17T22:33:13.437Z,93319.34
2023-01-17T22:35:42.823Z,93335.94
2023-01-17T22:38:11.895Z,93330.47
2023-01-17T22:40:40.878Z,93322.28
2023-01-17T22:43:10.345Z,93309.06
2023-01-17T22:45:40.776Z,93295.19
2023-01-17T22:48:10.313Z,93298.97
2023-01-17T22:50:39.258Z,93295.91
2023-01-17T22:53:08.820Z,93315.81
2023-01-17T22:55:38.230Z,93342.66
2023-01-17T22:58:07.279Z,93313.50
2023-01-17T23:00:36.322Z,93317.69
2023-01-17T23:03:07.069Z,93321.59
2023-01-17T23:05:46.658Z,93327.63
2023-01-17T23:08:15.910Z,93310.72
2023-01-17T23:11:02.139Z,93313.28
2023-01-17T23:13:31.233Z,93326.63
2023-01-17T23:16:23.783Z,93325.59
2023-01-17T23:19:11.916Z,93314.25
2023-01-17T23:21:57.494Z,93300.19
2023-01-17T23:24:26.935Z,93294.16
2023-01-17T23:27:09.782Z,93295.84
2023-01-17T23:29:38.891Z,93305.66
2023-01-17T23:32:07.915Z,93306.69
2023-01-17T23:34:38.449Z,93317.50
2023-01-17T23:37:07.589Z,93310.28
2023-01-17T23:39:36.595Z,93318.88
2023-01-17T23:42:23.337Z,93300.59
2023-01-17T23:44:52.419Z,93314.44
2023-01-17T23:47:21.479Z,93309.72
2023-01-17T23:49:52.118Z,93325.03
2023-01-17T23:52:21.309Z,93319.16
2023-01-17T23:54:50.276Z,93334.28
2023-01-17T23:57:20.051Z,93318.47
2023-01-17T23:59:49.061Z,93312.56
